Terminal Aerodrome Forecast
Issued by NWS

Home | Current Version | Previous Version | Text Only | Print | Product List | Glossary On
Versions: 1 2 3 4 5 6 7 8 9 10 11 12 13
000
FTUS45 KRIW 262300
TAFJAC
TAF
KJAC 262321Z 2700/2724 VRB04KT P6SM SCT040 BKN070
     FM270100 36006KT P6SM BKN040
     FM271000 VRB05KT P6SM VCFG SCT004 BKN035
     FM271900 18010KT P6SM VCSH SCT030 BKN060
      AMD LTD TO CLD VIS AND WIND=

USA.gov is the U.S. government's official web portal to all federal, state and local government web resources and services.